Time;durP1;ratioP1;P1;durP2;ratioP2;P2;SDS_P1;SDS_P2;PMS_P1;PMS_P2;Temp;Humidity;BMP_temperature;BMP_pressure;BME280_temperature;BME280_humidity;BME280_pressure;Samples;Min_cycle;Max_cycle;Signal;HPM_P1;HPM_P2
2023/09/11 00:00:53;;;;;;;3.47;3.38;;;24.80;75.00;;;;;;5053718;28;45064;-76
2023/09/11 00:03:21;;;;;;;3.42;3.33;;;24.80;74.90;;;;;;5051063;28;43419;-76
2023/09/11 00:05:50;;;;;;;3.30;3.20;;;24.70;75.00;;;;;;5053329;28;43790;-76
2023/09/11 00:08:31;;;;;;;3.15;3.05;;;24.70;75.30;;;;;;5053574;28;46464;-77
2023/09/11 00:11:00;;;;;;;3.75;3.55;;;24.70;75.40;;;;;;5049757;28;45005;-76
2023/09/11 00:13:30;;;;;;;3.22;3.13;;;24.60;75.50;;;;;;5052247;28;43525;-77
2023/09/11 00:15:58;;;;;;;3.42;3.33;;;24.60;75.70;;;;;;5054573;28;43471;-76
2023/09/11 00:18:26;;;;;;;3.35;3.25;;;24.60;75.80;;;;;;5047429;28;43605;-75
2023/09/11 00:20:54;;;;;;;3.30;3.20;;;24.50;75.80;;;;;;5042910;28;43444;-74
2023/09/11 00:23:22;;;;;;;3.03;2.92;;;24.50;75.90;;;;;;5042537;28;43418;-74
2023/09/11 00:25:50;;;;;;;3.20;3.10;;;24.50;76.00;;;;;;5040205;28;43948;-74
2023/09/11 00:28:18;;;;;;;3.30;3.20;;;24.50;76.10;;;;;;5041778;28;43599;-74
2023/09/11 00:30:47;;;;;;;3.40;3.20;;;24.40;76.10;;;;;;5034897;28;44689;-73
2023/09/11 00:33:16;;;;;;;3.33;3.10;;;24.50;76.00;;;;;;5040920;28;43345;-74
2023/09/11 00:35:45;;;;;;;3.10;3.00;;;24.50;76.40;;;;;;5035514;28;43479;-73
2023/09/11 00:38:16;;;;;;;3.40;3.30;;;24.70;75.30;;;;;;5029112;28;45339;-72
2023/09/11 00:40:44;;;;;;;2.78;2.67;;;24.70;74.90;;;;;;5025943;28;44757;-73
2023/09/11 00:43:12;;;;;;;3.08;2.97;;;24.80;74.90;;;;;;5038332;28;43399;-75
2023/09/11 00:45:40;;;;;;;3.42;3.33;;;24.70;75.10;;;;;;5042912;28;43838;-74
2023/09/11 00:48:09;;;;;;;3.33;3.22;;;24.70;76.10;;;;;;5028101;28;45322;-73
2023/09/11 00:50:38;;;;;;;2.92;2.85;;;24.70;75.40;;;;;;5033622;28;43480;-74
2023/09/11 00:53:06;;;;;;;3.72;3.63;;;24.60;75.50;;;;;;5040315;28;43422;-74
2023/09/11 00:55:34;;;;;;;3.50;3.40;;;24.60;75.60;;;;;;5030473;28;43633;-75
2023/09/11 00:58:02;;;;;;;3.28;3.08;;;24.50;75.70;;;;;;5037999;28;45704;-73
2023/09/11 01:00:30;;;;;;;3.70;3.60;;;24.50;75.80;;;;;;5035975;28;44710;-77
2023/09/11 01:02:58;;;;;;;3.35;3.25;;;24.50;75.80;;;;;;5047871;28;43458;-76
2023/09/11 01:05:28;;;;;;;3.15;3.05;;;24.50;75.90;;;;;;5042879;28;43457;-76
2023/09/11 01:07:57;;;;;;;3.00;2.97;;;24.50;76.00;;;;;;5037470;28;43815;-77
2023/09/11 01:10:25;;;;;;;3.47;3.38;;;24.40;76.00;;;;;;5039774;28;43396;-78
2023/09/11 01:12:53;;;;;;;3.60;3.50;;;24.50;75.90;;;;;;5044914;28;44000;-78
2023/09/11 01:15:21;;;;;;;3.53;3.42;;;24.60;75.80;;;;;;5041066;28;43392;-77
2023/09/11 01:17:54;;;;;;;3.22;3.13;;;24.70;75.20;;;;;;5043106;28;44953;-76
2023/09/11 01:20:32;;;;;;;3.22;3.13;;;24.80;74.90;;;;;;5035528;28;44114;-77
2023/09/11 01:23:17;;;;;;;3.60;3.50;;;24.80;74.90;;;;;;5040807;28;43435;-76
2023/09/11 01:26:07;;;;;;;3.30;3.20;;;24.70;75.10;;;;;;5040384;28;43504;-77
2023/09/11 01:28:45;;;;;;;3.10;3.00;;;24.70;75.40;;;;;;5027626;28;45659;-75
2023/09/11 01:31:14;;;;;;;3.05;2.97;;;24.60;75.30;;;;;;5041210;28;45006;-76
2023/09/11 01:33:43;;;;;;;3.30;3.20;;;24.60;75.50;;;;;;5036605;28;44043;-77
2023/09/11 01:36:11;;;;;;;3.58;3.42;;;24.60;75.70;;;;;;5039022;28;43848;-79
2023/09/11 01:38:39;;;;;;;3.30;3.20;;;24.50;76.40;;;;;;5036951;28;45388;-78
2023/09/11 01:41:08;;;;;;;3.30;3.20;;;24.50;75.70;;;;;;5037002;28;44002;-79
2023/09/11 01:43:37;;;;;;;3.65;3.45;;;24.50;75.90;;;;;;5042804;28;43301;-77
2023/09/11 01:46:05;;;;;;;3.47;3.38;;;24.50;75.90;;;;;;5033482;28;43570;-77
2023/09/11 01:48:34;;;;;;;3.25;3.15;;;24.40;76.00;;;;;;5042836;28;45813;-77
2023/09/11 01:51:03;;;;;;;3.22;3.13;;;24.50;76.00;;;;;;5038557;28;43445;-77
2023/09/11 01:53:31;;;;;;;3.30;3.20;;;24.50;75.70;;;;;;5037710;28;43448;-76
2023/09/11 01:55:59;;;;;;;3.30;3.00;;;24.70;75.40;;;;;;5032814;28;43422;-78
2023/09/11 01:58:27;;;;;;;3.50;3.30;;;24.70;74.80;;;;;;5037301;28;45661;-77
2023/09/11 02:00:55;;;;;;;3.33;3.22;;;24.70;74.70;;;;;;5041194;28;45057;-77
2023/09/11 02:03:24;;;;;;;3.10;3.10;;;24.70;74.90;;;;;;5038958;28;43399;-78
2023/09/11 02:05:54;;;;;;;3.65;3.55;;;24.70;75.20;;;;;;5041416;28;43552;-77
2023/09/11 02:08:23;;;;;;;2.95;2.88;;;24.60;75.30;;;;;;5043521;28;46224;-75
2023/09/11 02:10:53;;;;;;;3.20;3.10;;;24.60;75.40;;;;;;5042332;28;44358;-73
2023/09/11 02:13:21;;;;;;;3.40;3.30;;;24.60;75.60;;;;;;5041014;28;43500;-76
2023/09/11 02:15:50;;;;;;;3.10;3.10;;;24.50;75.60;;;;;;5034320;28;43500;-74
2023/09/11 02:18:19;;;;;;;3.38;3.28;;;24.50;75.70;;;;;;5050898;28;43885;-76
2023/09/11 02:20:47;;;;;;;2.85;2.85;;;24.50;75.70;;;;;;5052452;28;44761;-76
2023/09/11 02:23:17;;;;;;;3.05;2.95;;;24.50;75.90;;;;;;5058628;28;43408;-76
2023/09/11 02:25:47;;;;;;;3.38;3.20;;;24.50;75.80;;;;;;5056427;28;43504;-76
2023/09/11 02:28:15;;;;;;;3.28;3.08;;;24.40;75.90;;;;;;5033892;28;45406;-78
2023/09/11 02:30:43;;;;;;;3.25;3.15;;;24.40;75.90;;;;;;5047249;28;44077;-77
2023/09/11 02:33:12;;;;;;;3.30;3.03;;;24.50;75.60;;;;;;5039473;28;43486;-77
2023/09/11 02:35:40;;;;;;;3.50;3.40;;;24.60;75.90;;;;;;5041391;28;43448;-77
2023/09/11 02:38:08;;;;;;;3.47;3.38;;;24.70;74.80;;;;;;5034873;28;44028;-76
2023/09/11 02:40:38;;;;;;;3.40;3.20;;;24.70;74.50;;;;;;5043584;28;44901;-77
2023/09/11 02:43:06;;;;;;;3.00;3.00;;;24.70;74.70;;;;;;5036618;28;43478;-78
2023/09/11 02:45:34;;;;;;;3.03;3.03;;;24.70;75.70;;;;;;5038555;28;43637;-78
2023/09/11 02:48:02;;;;;;;3.08;3.03;;;24.60;75.10;;;;;;5041693;28;45361;-77
2023/09/11 02:50:30;;;;;;;3.25;3.10;;;24.60;75.10;;;;;;5035629;28;44738;-77
2023/09/11 02:52:59;;;;;;;3.22;3.13;;;24.60;75.40;;;;;;5043903;28;43383;-78
2023/09/11 02:55:27;;;;;;;3.00;2.90;;;24.50;75.40;;;;;;5035239;28;44619;-77
2023/09/11 02:57:56;;;;;;;3.35;3.20;;;24.50;76.30;;;;;;5042427;28;43700;-78
2023/09/11 03:00:24;;;;;;;3.55;3.25;;;24.50;75.60;;;;;;5041600;28;44381;-77
2023/09/11 03:02:52;;;;;;;3.28;3.00;;;24.50;75.70;;;;;;5047491;28;43514;-78
2023/09/11 03:05:20;;;;;;;3.30;3.20;;;24.40;75.60;;;;;;5040519;28;43490;-77
2023/09/11 03:07:48;;;;;;;3.05;2.97;;;24.40;76.40;;;;;;5042045;28;45640;-79
2023/09/11 03:10:16;;;;;;;2.95;2.95;;;24.40;75.70;;;;;;5040850;28;43443;-78
2023/09/11 03:12:45;;;;;;;3.03;2.92;;;24.50;75.50;;;;;;5048238;28;43526;-76
2023/09/11 03:15:14;;;;;;;3.40;3.30;;;24.60;75.10;;;;;;5035252;28;43438;-76
2023/09/11 03:17:44;;;;;;;3.60;3.50;;;24.70;74.60;;;;;;5042897;28;45655;-75
2023/09/11 03:20:12;;;;;;;3.60;3.50;;;24.70;74.30;;;;;;5046010;28;44656;-74
2023/09/11 03:22:40;;;;;;;3.35;3.25;;;24.70;74.50;;;;;;5031043;28;43383;-72
2023/09/11 03:25:11;;;;;;;3.22;3.13;;;24.70;74.80;;;;;;5042662;28;43537;-74
2023/09/11 03:27:40;;;;;;;3.35;3.20;;;24.60;74.90;;;;;;5046467;28;46023;-74
2023/09/11 03:30:09;;;;;;;3.38;3.17;;;24.60;75.00;;;;;;5038401;28;44966;-77
2023/09/11 03:32:39;;;;;;;3.40;3.30;;;24.60;75.20;;;;;;5049048;28;43365;-73
2023/09/11 03:35:08;;;;;;;3.30;3.20;;;24.50;75.20;;;;;;5043594;28;43455;-73
2023/09/11 03:37:36;;;;;;;3.75;3.60;;;24.40;75.40;;;;;;5046381;28;45664;-74
2023/09/11 03:40:07;;;;;;;3.50;3.40;;;24.50;75.40;;;;;;5044033;28;44289;-75
2023/09/11 03:42:36;;;;;;;3.10;3.00;;;24.50;75.60;;;;;;5041109;28;43881;-74
2023/09/11 03:45:05;;;;;;;3.45;3.35;;;24.40;76.10;;;;;;5043285;28;43987;-74
2023/09/11 03:47:33;;;;;;;3.25;3.15;;;24.40;75.70;;;;;;5041995;28;44018;-73
2023/09/11 03:50:04;;;;;;;2.78;2.78;;;24.40;75.50;;;;;;5049350;28;44307;-74
2023/09/11 03:52:32;;;;;;;3.38;3.28;;;24.50;75.40;;;;;;5032441;28;43419;-73
2023/09/11 03:55:00;;;;;;;3.53;3.33;;;24.60;75.10;;;;;;5043932;28;43566;-75
2023/09/11 03:57:28;;;;;;;4.10;3.90;;;24.70;74.50;;;;;;5048834;28;46378;-75
2023/09/11 03:59:56;;;;;;;5.30;4.47;;;24.70;74.40;;;;;;5033788;28;44798;-77
2023/09/11 04:02:25;;;;;;;10.02;5.60;;;24.70;74.60;;;;;;5046226;28;43459;-77
2023/09/11 04:04:53;;;;;;;8.38;5.38;;;24.60;74.80;;;;;;5037320;28;44093;-79
2023/09/11 04:07:23;;;;;;;12.35;5.65;;;24.60;74.90;;;;;;5035934;28;46187;-78
2023/09/11 04:09:52;;;;;;;11.10;6.45;;;24.60;75.00;;;;;;5048507;28;44439;-73
2023/09/11 04:12:21;;;;;;;12.13;6.22;;;24.50;75.00;;;;;;5045314;28;43374;-76
2023/09/11 04:14:49;;;;;;;13.88;6.80;;;24.50;75.20;;;;;;5041700;28;43502;-76
2023/09/11 04:17:17;;;;;;;12.40;6.50;;;24.40;75.30;;;;;;5036465;28;45439;-75
2023/09/11 04:19:48;;;;;;;17.83;7.43;;;24.50;75.50;;;;;;5022016;28;44632;-75
2023/09/11 04:22:16;;;;;;;12.25;7.28;;;24.40;75.40;;;;;;5037975;28;44005;-77
2023/09/11 04:24:46;;;;;;;13.70;7.63;;;24.40;75.30;;;;;;5034868;28;43656;-75
2023/09/11 04:27:14;;;;;;;20.65;8.13;;;24.40;75.70;;;;;;5045205;28;45696;-77
2023/09/11 04:29:43;;;;;;;18.13;9.02;;;24.40;76.20;;;;;;5046644;28;45218;-79
2023/09/11 04:32:12;;;;;;;14.65;7.95;;;24.50;75.30;;;;;;5043186;28;43358;-79
2023/09/11 04:34:40;;;;;;;19.27;8.40;;;24.60;74.90;;;;;;5056441;28;43480;-79
2023/09/11 04:37:08;;;;;;;19.92;9.32;;;24.70;74.40;;;;;;5055066;28;44280;-78
2023/09/11 04:39:37;;;;;;;20.83;8.60;;;24.70;73.80;;;;;;5052304;28;43415;-79
2023/09/11 04:42:07;;;;;;;20.73;9.15;;;24.80;74.00;;;;;;5045888;28;43524;-78
2023/09/11 04:44:35;;;;;;;16.80;8.73;;;24.70;74.00;;;;;;5048984;28;43675;-78
2023/09/11 04:47:03;;;;;;;14.75;8.65;;;24.70;74.30;;;;;;5043257;28;45700;-78
2023/09/11 04:49:31;;;;;;;15.20;8.70;;;24.60;74.40;;;;;;5038790;28;43435;-75
2023/09/11 04:52:01;;;;;;;10.40;7.85;;;24.60;74.50;;;;;;5051559;28;43394;-80
2023/09/11 04:54:29;;;;;;;19.20;9.18;;;24.50;74.50;;;;;;5053538;28;43405;-78
2023/09/11 04:56:57;;;;;;;16.27;9.25;;;24.50;72.60;;;;;;5058619;28;45723;-77
2023/09/11 04:59:26;;;;;;;12.70;8.38;;;24.50;72.90;;;;;;5049461;28;43518;-78
2023/09/11 05:01:54;;;;;;;13.75;8.32;;;24.40;73.00;;;;;;5065734;22;45068;-70
2023/09/11 05:04:23;;;;;;;11.30;8.20;;;24.40;74.30;;;;;;5058988;28;43927;-70
2023/09/11 05:06:51;;;;;;;14.10;8.63;;;24.40;73.80;;;;;;5041939;28;45925;-73
2023/09/11 05:09:19;;;;;;;11.32;8.40;;;24.40;73.90;;;;;;5042028;28;43423;-71
2023/09/11 05:11:48;;;;;;;13.07;8.52;;;24.40;74.30;;;;;;5040476;28;43762;-72
2023/09/11 05:14:16;;;;;;;12.27;8.05;;;24.40;74.60;;;;;;5059344;28;43465;-71
2023/09/11 05:16:50;;;;;;;14.40;8.07;;;24.30;74.60;;;;;;5047828;28;45749;-72
2023/09/11 05:19:19;;;;;;;13.23;8.02;;;24.30;74.50;;;;;;5038821;28;45068;-72
2023/09/11 05:21:48;;;;;;;11.40;8.20;;;24.40;74.30;;;;;;5041637;28;43462;-72
2023/09/11 05:24:16;;;;;;;12.25;7.85;;;24.50;74.00;;;;;;5044490;28;43511;-71
2023/09/11 05:26:44;;;;;;;12.82;8.00;;;24.60;73.70;;;;;;5042657;28;44032;-71
2023/09/11 05:29:13;;;;;;;10.38;7.80;;;24.60;73.40;;;;;;5040412;28;43386;-71
2023/09/11 05:31:41;;;;;;;11.38;7.72;;;24.60;73.50;;;;;;5040607;28;43762;-71
2023/09/11 05:34:10;;;;;;;11.18;8.05;;;24.60;73.80;;;;;;5040536;28;44005;-71
2023/09/11 05:36:40;;;;;;;12.35;8.25;;;24.50;73.90;;;;;;5039712;28;46899;-69
2023/09/11 05:39:08;;;;;;;8.73;7.28;;;24.50;73.80;;;;;;5065411;28;44835;-68
2023/09/11 05:41:37;;;;;;;9.48;7.70;;;24.50;74.00;;;;;;5078003;22;43399;-79
2023/09/11 05:44:05;;;;;;;9.23;7.55;;;24.50;74.20;;;;;;5060923;28;43837;-76
2023/09/11 05:46:33;;;;;;;10.55;7.80;;;24.40;74.20;;;;;;5051690;28;44355;-78
2023/09/11 05:49:01;;;;;;;8.73;7.95;;;24.40;74.80;;;;;;5049941;28;44027;-77
2023/09/11 05:51:31;;;;;;;8.40;7.60;;;24.40;73.60;;;;;;5037467;28;43397;-76
2023/09/11 05:53:59;;;;;;;9.18;8.25;;;24.50;73.30;;;;;;5054962;28;43382;-79
2023/09/11 05:56:27;;;;;;;8.95;7.70;;;24.60;73.10;;;;;;5034786;28;45712;-75
2023/09/11 05:58:55;;;;;;;9.20;7.75;;;24.60;73.80;;;;;;5065300;28;43375;-77
2023/09/11 06:01:23;;;;;;;9.02;8.13;;;24.60;73.50;;;;;;5065414;28;43478;-77
2023/09/11 06:03:52;;;;;;;9.05;7.85;;;24.50;73.70;;;;;;5053633;28;43806;-78
2023/09/11 06:06:20;;;;;;;8.40;7.57;;;24.50;73.70;;;;;;5040346;28;45996;-78
2023/09/11 06:08:49;;;;;;;8.02;7.35;;;24.40;73.80;;;;;;5038999;28;45077;-79
2023/09/11 06:11:18;;;;;;;7.70;7.00;;;24.40;74.00;;;;;;5034995;28;43405;-77
2023/09/11 06:13:48;;;;;;;10.25;7.63;;;24.40;74.10;;;;;;5047632;28;43457;-77
2023/09/11 06:16:17;;;;;;;7.75;7.05;;;24.30;74.00;;;;;;5034282;28;46057;-76
2023/09/11 06:18:45;;;;;;;8.18;7.38;;;24.30;74.10;;;;;;5036617;28;44834;-77
2023/09/11 06:21:14;;;;;;;7.70;7.00;;;24.30;74.20;;;;;;5040445;28;44072;-77
2023/09/11 06:23:42;;;;;;;7.90;6.97;;;24.30;74.20;;;;;;5036797;28;43382;-78
2023/09/11 06:26:12;;;;;;;7.72;6.80;;;24.30;74.10;;;;;;5033677;28;45966;-76
2023/09/11 06:28:40;;;;;;;8.05;6.50;;;24.30;73.80;;;;;;5043003;28;44315;-78
2023/09/11 06:31:09;;;;;;;8.50;7.05;;;24.40;73.20;;;;;;5057577;28;43459;-76
2023/09/11 06:33:37;;;;;;;7.82;6.38;;;24.50;72.80;;;;;;5036671;28;43746;-78
2023/09/11 06:36:06;;;;;;;8.15;7.13;;;24.70;72.90;;;;;;5062863;28;43778;-76
2023/09/11 06:38:34;;;;;;;6.78;6.18;;;24.70;72.80;;;;;;5050513;28;43329;-76
2023/09/11 06:41:03;;;;;;;7.03;6.53;;;24.60;72.90;;;;;;5042178;28;43421;-78
2023/09/11 06:43:32;;;;;;;6.80;6.28;;;24.50;73.20;;;;;;5045362;28;43894;-75
2023/09/11 06:46:00;;;;;;;6.65;6.22;;;24.50;73.30;;;;;;5051627;28;43823;-77
2023/09/11 06:48:28;;;;;;;8.35;7.18;;;24.50;73.40;;;;;;5042865;28;44553;-77
2023/09/11 06:50:57;;;;;;;7.45;6.68;;;24.40;73.60;;;;;;5041879;28;43448;-76
2023/09/11 06:53:25;;;;;;;6.68;6.07;;;24.40;73.80;;;;;;5057397;28;43359;-75
2023/09/11 06:55:53;;;;;;;7.20;6.35;;;24.40;73.90;;;;;;5038142;28;46110;-77
2023/09/11 06:58:21;;;;;;;7.03;6.47;;;24.40;73.90;;;;;;5034147;28;44653;-75
2023/09/11 07:00:51;;;;;;;7.88;6.47;;;24.30;74.00;;;;;;5041509;28;43406;-74
2023/09/11 07:03:20;;;;;;;6.63;6.13;;;24.30;74.10;;;;;;5061813;28;43482;-77
2023/09/11 07:05:51;;;;;;;7.20;6.60;;;24.30;74.30;;;;;;5060547;28;44093;-77
2023/09/11 07:08:19;;;;;;;7.00;6.43;;;24.30;74.30;;;;;;5030738;28;44440;-75
2023/09/11 07:10:50;;;;;;;6.32;5.93;;;24.40;74.50;;;;;;5055924;28;43948;-78
2023/09/11 07:13:18;;;;;;;6.70;5.88;;;24.50;73.50;;;;;;5031142;28;43630;-74
2023/09/11 07:15:56;;;;;;;8.40;6.40;;;24.50;73.10;;;;;;5036480;28;45249;-76
2023/09/11 07:18:24;;;;;;;6.57;6.03;;;24.50;73.90;;;;;;5050096;28;43435;-75
2023/09/11 07:20:53;;;;;;;6.80;6.13;;;24.50;73.30;;;;;;5060831;28;43550;-75
2023/09/11 07:23:22;;;;;;;5.88;5.38;;;24.40;73.50;;;;;;5059403;28;43490;-75
2023/09/11 07:25:51;;;;;;;6.15;5.60;;;24.40;73.70;;;;;;5035539;28;45904;-77
2023/09/11 07:28:19;;;;;;;6.35;5.90;;;24.40;73.80;;;;;;5052195;28;43826;-76
2023/09/11 07:30:47;;;;;;;6.40;5.95;;;24.40;73.80;;;;;;5063188;28;43446;-76
2023/09/11 07:33:16;;;;;;;7.03;5.90;;;24.30;74.00;;;;;;5062328;28;43366;-76
2023/09/11 07:35:45;;;;;;;6.10;5.65;;;24.30;74.20;;;;;;5065357;28;43691;-78
2023/09/11 07:38:13;;;;;;;6.57;5.97;;;24.30;74.10;;;;;;5037540;28;44630;-74
2023/09/11 07:40:41;;;;;;;5.70;5.30;;;24.40;73.80;;;;;;5059839;28;43521;-76
2023/09/11 07:43:11;;;;;;;6.00;5.50;;;24.50;73.50;;;;;;5041213;28;43439;-76
2023/09/11 07:45:39;;;;;;;5.30;4.90;;;24.50;73.30;;;;;;5041891;28;46327;-76
2023/09/11 07:48:07;;;;;;;5.97;5.57;;;24.50;73.30;;;;;;5052808;28;45133;-78
2023/09/11 07:50:36;;;;;;;6.07;5.68;;;24.50;73.40;;;;;;5065301;28;43380;-74
2023/09/11 07:53:06;;;;;;;6.60;6.00;;;24.40;73.70;;;;;;5058728;28;43419;-77
2023/09/11 07:55:37;;;;;;;5.93;5.55;;;24.40;73.80;;;;;;5032429;28;45512;-75
2023/09/11 07:58:05;;;;;;;5.32;5.03;;;24.40;73.90;;;;;;5057564;28;43425;-76
2023/09/11 08:00:33;;;;;;;5.10;4.80;;;24.30;73.80;;;;;;5056548;28;43533;-78
2023/09/11 08:03:03;;;;;;;5.45;5.20;;;24.30;74.40;;;;;;5049115;28;43467;-75
2023/09/11 08:05:31;;;;;;;6.03;5.43;;;24.30;74.50;;;;;;5044278;28;44681;-77
2023/09/11 08:08:02;;;;;;;6.20;5.70;;;24.30;74.50;;;;;;5052692;28;45178;-80
2023/09/11 08:10:30;;;;;;;5.75;5.28;;;24.20;74.30;;;;;;5046040;28;43448;-78
2023/09/11 08:12:58;;;;;;;5.28;4.95;;;24.20;74.50;;;;;;5051680;28;43412;-80
2023/09/11 08:15:28;;;;;;;5.55;5.07;;;24.20;74.80;;;;;;5036127;28;45711;-77
2023/09/11 08:17:56;;;;;;;5.82;5.43;;;24.30;75.40;;;;;;5046709;28;44678;-79
2023/09/11 08:20:24;;;;;;;5.20;4.90;;;24.30;74.20;;;;;;5040162;28;43544;-78
2023/09/11 08:22:52;;;;;;;5.55;5.10;;;24.40;73.80;;;;;;5053222;28;43376;-79
2023/09/11 08:25:22;;;;;;;6.22;5.63;;;24.50;73.70;;;;;;5044313;28;43624;-79
2023/09/11 08:27:50;;;;;;;5.50;5.20;;;24.50;73.50;;;;;;5040983;28;43916;-78
2023/09/11 08:30:18;;;;;;;5.18;4.78;;;24.50;73.70;;;;;;5065234;28;43301;-76
2023/09/11 08:32:46;;;;;;;5.47;5.18;;;24.40;73.90;;;;;;5063814;28;43900;-78
2023/09/11 08:35:14;;;;;;;5.43;4.97;;;24.40;74.20;;;;;;5058173;28;43880;-78
2023/09/11 08:37:43;;;;;;;5.43;5.13;;;24.40;74.10;;;;;;5064964;28;43598;-76
2023/09/11 08:40:11;;;;;;;5.15;4.95;;;24.30;74.10;;;;;;5033633;28;43428;-76
2023/09/11 08:42:40;;;;;;;5.57;5.25;;;24.30;74.40;;;;;;5054871;28;43493;-77
2023/09/11 08:45:08;;;;;;;5.15;4.85;;;24.30;74.70;;;;;;5054865;28;44540;-77
2023/09/11 08:47:37;;;;;;;4.70;4.43;;;24.20;74.60;;;;;;5049731;28;43494;-79
2023/09/11 08:50:06;;;;;;;4.75;4.47;;;24.20;74.50;;;;;;5050276;28;43331;-76
2023/09/11 08:52:35;;;;;;;5.18;4.97;;;24.20;74.60;;;;;;5038727;28;43524;-79
2023/09/11 08:55:07;;;;;;;5.32;5.00;;;24.20;75.00;;;;;;5064304;28;44307;-77
2023/09/11 08:57:35;;;;;;;5.43;5.00;;;24.20;75.00;;;;;;5047567;28;43394;-78
2023/09/11 09:00:09;;;;;;;5.53;5.10;;;24.30;74.70;;;;;;5063342;28;43510;-78
2023/09/11 09:02:37;;;;;;;5.32;4.90;;;24.40;74.20;;;;;;5042223;28;43486;-80
2023/09/11 09:05:06;;;;;;;5.05;4.85;;;24.50;74.00;;;;;;5042614;28;45751;-79
2023/09/11 09:07:34;;;;;;;4.72;4.43;;;24.50;73.80;;;;;;5059327;28;43333;-78
2023/09/11 09:10:03;;;;;;;4.75;4.53;;;24.50;73.80;;;;;;5021168;28;43443;-76
2023/09/11 09:12:31;;;;;;;5.28;4.88;;;24.40;74.00;;;;;;5027598;28;43522;-78
2023/09/11 09:14:59;;;;;;;4.38;4.18;;;24.40;74.20;;;;;;5058030;28;44048;-79
2023/09/11 09:17:29;;;;;;;4.65;4.35;;;24.40;74.30;;;;;;5037290;28;44740;-77
2023/09/11 09:19:57;;;;;;;4.75;4.55;;;24.30;74.20;;;;;;5055470;28;43463;-78
2023/09/11 09:22:26;;;;;;;5.03;4.72;;;24.30;75.20;;;;;;5076265;28;43364;-79
2023/09/11 09:24:55;;;;;;;4.85;4.65;;;24.30;74.80;;;;;;5044815;28;45613;-77
2023/09/11 09:27:25;;;;;;;4.75;4.45;;;24.20;74.70;;;;;;5052216;28;45121;-76
2023/09/11 09:29:53;;;;;;;4.93;4.65;;;24.20;74.60;;;;;;5066156;28;43379;-77
2023/09/11 09:32:21;;;;;;;4.78;4.45;;;24.20;74.60;;;;;;5064794;28;43427;-77
2023/09/11 09:34:53;;;;;;;5.18;4.97;;;24.20;75.10;;;;;;5031419;28;45413;-77
2023/09/11 09:37:22;;;;;;;5.53;4.53;;;24.20;74.90;;;;;;5032183;28;43945;-75
2023/09/11 09:39:50;;;;;;;5.18;4.95;;;24.30;75.40;;;;;;5063368;28;43371;-76
2023/09/11 09:42:18;;;;;;;4.90;4.70;;;24.40;74.20;;;;;;5057754;28;43432;-75
2023/09/11 09:44:52;;;;;;;5.22;4.88;;;24.50;74.00;;;;;;5059054;28;43612;-76
2023/09/11 09:47:21;;;;;;;4.75;4.55;;;24.50;73.90;;;;;;5060220;28;43479;-76
2023/09/11 09:49:52;;;;;;;4.55;4.25;;;24.40;73.80;;;;;;5042671;28;43907;-75
2023/09/11 09:52:21;;;;;;;5.10;4.70;;;24.40;74.30;;;;;;5046465;28;43626;-75
2023/09/11 09:54:50;;;;;;;4.70;4.50;;;24.40;74.40;;;;;;5030578;28;45905;-77
2023/09/11 09:57:19;;;;;;;4.85;4.65;;;24.40;74.40;;;;;;5051351;28;43415;-76
2023/09/11 09:59:49;;;;;;;5.05;4.75;;;24.30;74.40;;;;;;5029212;28;43431;-77
2023/09/11 10:02:23;;;;;;;5.22;4.95;;;24.30;74.70;;;;;;5037632;28;43558;-75
2023/09/11 10:04:53;;;;;;;4.75;4.55;;;24.30;74.90;;;;;;5044047;28;46037;-77
2023/09/11 10:07:38;;;;;;;4.55;4.43;;;24.30;74.80;;;;;;5056759;28;44036;-76
2023/09/11 10:10:19;;;;;;;4.80;4.60;;;24.30;74.80;;;;;;5058802;28;43485;-75
2023/09/11 10:12:48;;;;;;;4.53;4.32;;;24.20;75.10;;;;;;5039124;28;43444;-76
2023/09/11 10:15:15;;;;;;;4.72;4.53;;;24.20;75.10;;;;;;5024246;28;45739;-76
2023/09/11 10:17:43;;;;;;;4.22;4.10;;;24.30;75.00;;;;;;5038651;28;45195;-76
2023/09/11 10:20:13;;;;;;;4.80;4.60;;;24.40;74.70;;;;;;5057645;28;43417;-75
2023/09/11 10:22:41;;;;;;;4.57;4.28;;;24.40;74.20;;;;;;5065218;28;43448;-76
2023/09/11 10:25:09;;;;;;;4.88;4.68;;;24.40;74.10;;;;;;5061301;28;43611;-75
2023/09/11 10:27:38;;;;;;;4.63;4.43;;;24.40;74.10;;;;;;5062320;28;43902;-76
2023/09/11 10:30:08;;;;;;;4.95;4.75;;;24.40;74.40;;;;;;5056297;28;43472;-74
2023/09/11 10:32:38;;;;;;;4.78;4.57;;;24.40;74.70;;;;;;5056818;28;43606;-76
2023/09/11 10:35:07;;;;;;;4.68;4.47;;;24.30;74.60;;;;;;5028640;28;45885;-75
2023/09/11 10:37:37;;;;;;;5.03;4.72;;;24.30;75.40;;;;;;5044372;28;43654;-76
2023/09/11 10:40:06;;;;;;;4.43;4.32;;;24.30;74.80;;;;;;5083166;28;43427;-77
2023/09/11 10:42:34;;;;;;;4.85;4.57;;;24.30;75.20;;;;;;5044541;28;43580;-78
2023/09/11 10:45:04;;;;;;;4.30;4.20;;;24.30;75.10;;;;;;5067570;28;44048;-77
2023/09/11 10:47:32;;;;;;;5.28;4.88;;;24.30;74.80;;;;;;5051469;28;44595;-77
2023/09/11 10:50:00;;;;;;;4.60;4.40;;;24.40;74.40;;;;;;5028611;28;43483;-76
2023/09/11 10:52:28;;;;;;;4.88;4.68;;;24.50;74.20;;;;;;5044251;28;43373;-77
2023/09/11 10:54:58;;;;;;;4.95;4.57;;;24.50;74.10;;;;;;5050940;28;45973;-76
2023/09/11 10:57:26;;;;;;;4.55;4.25;;;24.50;74.30;;;;;;5039444;28;45258;-76
2023/09/11 10:59:54;;;;;;;4.63;4.43;;;24.40;74.50;;;;;;5042047;28;43328;-76
2023/09/11 11:02:22;;;;;;;4.72;4.53;;;24.40;74.50;;;;;;5043453;28;43634;-78
2023/09/11 11:04:50;;;;;;;4.43;4.22;;;24.40;74.70;;;;;;5058481;28;45339;-76
2023/09/11 11:07:19;;;;;;;4.60;4.40;;;24.40;74.80;;;;;;5061766;28;43415;-75
2023/09/11 11:09:49;;;;;;;4.60;4.30;;;24.30;74.80;;;;;;5042697;28;43432;-75
2023/09/11 11:12:32;;;;;;;4.95;4.75;;;24.30;75.00;;;;;;5040669;28;43448;-78
2023/09/11 11:15:19;;;;;;;4.90;4.70;;;24.30;75.00;;;;;;5053668;28;44084;-77
2023/09/11 11:17:48;;;;;;;4.95;4.63;;;24.30;75.10;;;;;;5045065;28;43448;-76
2023/09/11 11:20:17;;;;;;;4.45;4.15;;;24.30;75.20;;;;;;5033670;28;43392;-77
2023/09/11 11:22:45;;;;;;;4.22;4.13;;;24.30;75.40;;;;;;5028175;28;43422;-77
2023/09/11 11:25:13;;;;;;;4.60;4.30;;;24.30;75.20;;;;;;5031204;28;43902;-76
2023/09/11 11:27:43;;;;;;;4.85;4.55;;;24.40;74.80;;;;;;5057051;28;44001;-78
2023/09/11 11:30:12;;;;;;;4.70;4.50;;;24.50;74.50;;;;;;5067636;28;43804;-78
2023/09/11 11:32:41;;;;;;;4.22;4.10;;;24.50;74.10;;;;;;5060389;28;44050;-76
2023/09/11 11:35:09;;;;;;;4.72;4.53;;;24.50;74.10;;;;;;5063203;28;44315;-76
2023/09/11 11:37:38;;;;;;;4.38;4.25;;;24.50;74.30;;;;;;5046919;28;44640;-77
2023/09/11 11:40:08;;;;;;;4.25;4.15;;;24.40;74.50;;;;;;5068182;28;43582;-77
2023/09/11 11:42:37;;;;;;;4.60;4.40;;;24.40;74.50;;;;;;5065337;28;44155;-77
2023/09/11 11:45:08;;;;;;;4.25;4.15;;;24.40;74.70;;;;;;5031499;28;45621;-77
2023/09/11 11:47:36;;;;;;;4.97;4.78;;;24.40;74.80;;;;;;5043749;28;44066;-75
2023/09/11 11:50:08;;;;;;;4.32;4.10;;;24.30;75.00;;;;;;5061515;28;44398;-75
2023/09/11 11:52:36;;;;;;;3.88;3.78;;;24.30;75.00;;;;;;5029707;28;43548;-77
2023/09/11 11:55:19;;;;;;;4.00;3.90;;;24.30;75.10;;;;;;5058165;28;45550;-76
2023/09/11 11:57:50;;;;;;;4.28;4.18;;;24.30;75.10;;;;;;5036590;28;43486;-78
2023/09/11 12:00:19;;;;;;;4.75;4.55;;;24.30;75.30;;;;;;5050094;28;43512;-78
2023/09/11 12:02:47;;;;;;;4.57;4.47;;;24.20;75.30;;;;;;5047014;28;43855;-77
2023/09/11 12:05:16;;;;;;;4.47;4.30;;;24.30;75.20;;;;;;5078838;22;44039;-67
2023/09/11 12:07:44;;;;;;;4.40;4.20;;;24.40;74.90;;;;;;5035936;28;43449;-68
2023/09/11 12:10:12;;;;;;;4.65;4.45;;;24.50;74.50;;;;;;5029741;28;43696;-66
2023/09/11 12:12:40;;;;;;;4.40;4.30;;;24.50;74.20;;;;;;5034658;28;43655;-66
2023/09/11 12:15:09;;;;;;;4.38;4.20;;;24.50;74.30;;;;;;5029836;28;43614;-66
2023/09/11 12:17:44;;;;;;;4.50;4.30;;;24.50;74.40;;;;;;5023719;28;44586;-66
2023/09/11 12:20:14;;;;;;;4.53;4.32;;;24.40;74.90;;;;;;5023320;28;43486;-66
2023/09/11 12:22:43;;;;;;;4.50;4.38;;;24.40;74.60;;;;;;5033049;28;43546;-66
2023/09/11 12:25:11;;;;;;;4.50;4.30;;;24.40;74.80;;;;;;5035370;28;43936;-69
2023/09/11 12:27:40;;;;;;;4.55;4.43;;;24.40;75.00;;;;;;5031895;28;43425;-66
2023/09/11 12:30:08;;;;;;;4.38;4.25;;;24.30;75.20;;;;;;5035663;28;44055;-66
2023/09/11 12:32:39;;;;;;;4.10;3.88;;;24.30;75.20;;;;;;5038162;28;43300;-66
2023/09/11 12:35:07;;;;;;;4.20;4.10;;;24.30;75.10;;;;;;5035423;28;43840;-65
2023/09/11 12:37:38;;;;;;;4.15;4.05;;;24.30;75.20;;;;;;5027963;28;44654;-66
2023/09/11 12:40:09;;;;;;;4.70;4.50;;;24.30;75.40;;;;;;5039450;28;43447;-66
2023/09/11 12:42:38;;;;;;;4.32;4.22;;;24.30;75.50;;;;;;5008899;28;43620;-66
2023/09/11 12:45:07;;;;;;;4.13;4.03;;;24.30;75.40;;;;;;5036329;28;44076;-66
2023/09/11 12:47:36;;;;;;;4.30;4.15;;;24.40;74.90;;;;;;5030956;28;43718;-72
2023/09/11 12:50:06;;;;;;;4.57;4.28;;;24.50;74.60;;;;;;5023328;28;43443;-72
2023/09/11 12:52:34;;;;;;;4.25;4.10;;;24.50;74.30;;;;;;5027015;28;43476;-73
2023/09/11 12:55:03;;;;;;;4.18;4.07;;;24.50;74.40;;;;;;5022538;28;43721;-72